sensor_id;sensor_type;location;lat;lon;timestamp;pressure;altitude;pressure_sealevel;temperature;humidity
2791;BME280;31795;50.970;13.366;2022-09-09T00:01:42;97426.31;;;11.85;100.00
2791;BME280;31795;50.970;13.366;2022-09-09T00:04:00;97421.69;;;11.80;100.00
2791;BME280;31795;50.970;13.366;2022-09-09T00:06:18;97422.69;;;11.79;100.00
2791;BME280;31795;50.970;13.366;2022-09-09T00:08:43;97432.16;;;11.80;100.00
2791;BME280;31795;50.970;13.366;2022-09-09T00:10:58;97423.69;;;11.78;100.00
2791;BME280;31795;50.970;13.366;2022-09-09T00:13:16;97421.88;;;11.78;100.00
2791;BME280;31795;50.970;13.366;2022-09-09T00:15:26;97423.31;;;11.74;100.00
2791;BME280;31795;50.970;13.366;2022-09-09T00:18:08;97417.06;;;11.75;100.00
2791;BME280;31795;50.970;13.366;2022-09-09T00:20:39;97413.63;;;11.75;100.00
2791;BME280;31795;50.970;13.366;2022-09-09T00:22:54;97412.84;;;11.74;100.00
2791;BME280;31795;50.970;13.366;2022-09-09T00:25:12;97418.25;;;11.73;100.00
2791;BME280;31795;50.970;13.366;2022-09-09T00:27:45;97416.47;;;11.73;100.00
2791;BME280;31795;50.970;13.366;2022-09-09T00:29:55;97413.84;;;11.73;100.00
2791;BME280;31795;50.970;13.366;2022-09-09T00:32:30;97416.84;;;11.70;100.00
2791;BME280;31795;50.970;13.366;2022-09-09T00:34:48;97410.84;;;11.76;100.00
2791;BME280;31795;50.970;13.366;2022-09-09T00:36:59;97411.41;;;11.78;100.00
2791;BME280;31795;50.970;13.366;2022-09-09T00:39:36;97412.84;;;11.74;100.00
2791;BME280;31795;50.970;13.366;2022-09-09T00:42:11;97410.22;;;11.74;100.00
2791;BME280;31795;50.970;13.366;2022-09-09T00:44:34;97408.22;;;11.70;100.00
2791;BME280;31795;50.970;13.366;2022-09-09T00:47:40;97411.81;;;11.69;100.00
2791;BME280;31795;50.970;13.366;2022-09-09T00:52:56;97418.25;;;11.73;100.00
2791;BME280;31795;50.970;13.366;2022-09-09T00:55:22;97413.03;;;11.73;100.00
2791;BME280;31795;50.970;13.366;2022-09-09T00:57:40;97421.06;;;11.71;100.00
2791;BME280;31795;50.970;13.366;2022-09-09T00:59:59;97415.22;;;11.69;100.00
2791;BME280;31795;50.970;13.366;2022-09-09T01:02:27;97423.06;;;11.69;100.00
2791;BME280;31795;50.970;13.366;2022-09-09T01:04:36;97416.22;;;11.68;100.00
2791;BME280;31795;50.970;13.366;2022-09-09T01:06:50;97417.06;;;11.69;100.00
2791;BME280;31795;50.970;13.366;2022-09-09T01:09:22;97410.41;;;11.66;100.00
2791;BME280;31795;50.970;13.366;2022-09-09T01:11:36;97420.28;;;11.64;100.00
2791;BME280;31795;50.970;13.366;2022-09-09T01:14:14;97414.81;;;11.59;100.00
2791;BME280;31795;50.970;13.366;2022-09-09T01:16:25;97420.06;;;11.59;100.00
2791;BME280;31795;50.970;13.366;2022-09-09T01:18:49;97420.44;;;11.56;100.00
2791;BME280;31795;50.970;13.366;2022-09-09T01:21:06;97422.84;;;11.50;100.00
2791;BME280;31795;50.970;13.366;2022-09-09T01:26:26;97422.25;;;11.48;100.00
2791;BME280;31795;50.970;13.366;2022-09-09T01:28:58;97416.78;;;11.43;100.00
2791;BME280;31795;50.970;13.366;2022-09-09T01:31:11;97415.19;;;11.42;100.00
2791;BME280;31795;50.970;13.366;2022-09-09T01:33:39;97417.78;;;11.42;100.00
2791;BME280;31795;50.970;13.366;2022-09-09T01:35:49;97409.53;;;11.39;100.00
2791;BME280;31795;50.970;13.366;2022-09-09T01:38:05;97404.91;;;11.34;100.00
2791;BME280;31795;50.970;13.366;2022-09-09T01:40:14;97413.13;;;11.31;100.00
2791;BME280;31795;50.970;13.366;2022-09-09T01:42:42;97401.88;;;11.30;100.00
2791;BME280;31795;50.970;13.366;2022-09-09T01:44:58;97396.06;;;11.28;100.00
2791;BME280;31795;50.970;13.366;2022-09-09T01:47:05;97399.66;;;11.27;100.00
2791;BME280;31795;50.970;13.366;2022-09-09T01:49:12;97395.84;;;11.30;100.00
2791;BME280;31795;50.970;13.366;2022-09-09T01:51:19;97397.47;;;11.31;100.00
2791;BME280;31795;50.970;13.366;2022-09-09T01:53:33;97398.06;;;11.33;100.00
2791;BME280;31795;50.970;13.366;2022-09-09T01:56:19;97391.84;;;11.34;100.00
2791;BME280;31795;50.970;13.366;2022-09-09T01:58:51;97389.84;;;11.36;100.00
2791;BME280;31795;50.970;13.366;2022-09-09T02:01:10;97389.84;;;11.36;100.00
2791;BME280;31795;50.970;13.366;2022-09-09T02:03:32;97394.66;;;11.39;100.00
2791;BME280;31795;50.970;13.366;2022-09-09T02:05:53;97391.66;;;11.42;100.00
2791;BME280;31795;50.970;13.366;2022-09-09T02:08:47;97393.47;;;11.42;100.00
2791;BME280;31795;50.970;13.366;2022-09-09T02:10:58;97396.88;;;11.42;100.00
2791;BME280;31795;50.970;13.366;2022-09-09T02:13:10;97392.47;;;11.43;100.00
2791;BME280;31795;50.970;13.366;2022-09-09T02:15:35;97390.66;;;11.43;100.00
2791;BME280;31795;50.970;13.366;2022-09-09T02:17:46;97391.25;;;11.45;100.00
2791;BME280;31795;50.970;13.366;2022-09-09T02:19:57;97399.31;;;11.44;100.00
2791;BME280;31795;50.970;13.366;2022-09-09T02:22:06;97393.47;;;11.42;100.00
2791;BME280;31795;50.970;13.366;2022-09-09T02:24:39;97396.25;;;11.40;100.00
2791;BME280;31795;50.970;13.366;2022-09-09T02:26:58;97396.69;;;11.44;100.00
2791;BME280;31795;50.970;13.366;2022-09-09T02:29:11;97398.28;;;11.45;100.00
2791;BME280;31795;50.970;13.366;2022-09-09T02:31:28;97396.88;;;11.42;100.00
2791;BME280;31795;50.970;13.366;2022-09-09T02:33:56;97399.50;;;11.42;100.00
2791;BME280;31795;50.970;13.366;2022-09-09T02:36:08;97398.69;;;11.42;100.00
2791;BME280;31795;50.970;13.366;2022-09-09T02:38:21;97403.69;;;11.37;100.00
2791;BME280;31795;50.970;13.366;2022-09-09T02:40:32;97400.69;;;11.33;100.00
2791;BME280;31795;50.970;13.366;2022-09-09T02:42:43;97404.09;;;11.33;100.00
2791;BME280;31795;50.970;13.366;2022-09-09T02:44:53;97409.13;;;11.35;100.00
2791;BME280;31795;50.970;13.366;2022-09-09T02:47:32;97404.28;;;11.32;100.00
2791;BME280;31795;50.970;13.366;2022-09-09T02:49:55;97408.69;;;11.31;100.00
2791;BME280;31795;50.970;13.366;2022-09-09T02:52:17;97401.88;;;11.30;100.00
2791;BME280;31795;50.970;13.366;2022-09-09T02:54:45;97408.72;;;11.25;100.00
2791;BME280;31795;50.970;13.366;2022-09-09T02:56:54;97402.25;;;11.21;100.00
2791;BME280;31795;50.970;13.366;2022-09-09T02:59:03;97396.44;;;11.25;100.00
2791;BME280;31795;50.970;13.366;2022-09-09T03:01:21;97395.81;;;11.23;100.00
2791;BME280;31795;50.970;13.366;2022-09-09T03:03:35;97399.66;;;11.21;100.00
2791;BME280;31795;50.970;13.366;2022-09-09T03:05:54;97398.25;;;11.18;100.00
2791;BME280;31795;50.970;13.366;2022-09-09T03:08:02;97405.25;;;11.17;100.00
2791;BME280;31795;50.970;13.366;2022-09-09T03:10:15;97406.47;;;11.15;100.00
2791;BME280;31795;50.970;13.366;2022-09-09T03:12:41;97400.63;;;11.13;100.00
2791;BME280;31795;50.970;13.366;2022-09-09T03:14:48;97399.78;;;11.12;100.00
2791;BME280;31795;50.970;13.366;2022-09-09T03:17:14;97396.38;;;11.12;100.00
2791;BME280;31795;50.970;13.366;2022-09-09T03:19:26;97395.41;;;11.13;100.00
2791;BME280;31795;50.970;13.366;2022-09-09T03:21:40;97396.19;;;11.13;100.00
2791;BME280;31795;50.970;13.366;2022-09-09T03:23:59;97397.00;;;11.14;100.00
2791;BME280;31795;50.970;13.366;2022-09-09T03:26:11;97400.22;;;11.16;100.00
2791;BME280;31795;50.970;13.366;2022-09-09T03:28:40;97400.41;;;11.14;100.00
2791;BME280;31795;50.970;13.366;2022-09-09T03:31:05;97399.25;;;11.17;100.00
2791;BME280;31795;50.970;13.366;2022-09-09T03:33:26;97400.84;;;11.18;100.00
2791;BME280;31795;50.970;13.366;2022-09-09T03:35:46;97400.84;;;11.18;100.00
2791;BME280;31795;50.970;13.366;2022-09-09T03:37:53;97397.41;;;11.17;100.00
2791;BME280;31795;50.970;13.366;2022-09-09T03:40:09;97394.00;;;11.17;100.00
2791;BME280;31795;50.970;13.366;2022-09-09T03:42:18;97387.34;;;11.14;100.00
2791;BME280;31795;50.970;13.366;2022-09-09T03:44:45;97397.38;;;11.11;100.00
2791;BME280;31795;50.970;13.366;2022-09-09T03:47:08;97392.56;;;11.08;100.00
2791;BME280;31795;50.970;13.366;2022-09-09T03:49:18;97397.38;;;11.04;100.00
2791;BME280;31795;50.970;13.366;2022-09-09T03:51:29;97386.69;;;10.99;100.00
2791;BME280;31795;50.970;13.366;2022-09-09T03:53:36;97396.53;;;10.97;100.00
2791;BME280;31795;50.970;13.366;2022-09-09T03:55:56;97393.50;;;10.93;100.00
2791;BME280;31795;50.970;13.366;2022-09-09T03:58:05;97402.31;;;10.92;100.00
2791;BME280;31795;50.970;13.366;2022-09-09T04:00:31;97398.91;;;10.92;100.00
2791;BME280;31795;50.970;13.366;2022-09-09T04:02:55;97402.94;;;10.94;100.00
2791;BME280;31795;50.970;13.366;2022-09-09T04:05:20;97399.34;;;10.95;100.00
2791;BME280;31795;50.970;13.366;2022-09-09T04:07:30;97400.34;;;10.94;100.00
2791;BME280;31795;50.970;13.366;2022-09-09T04:09:50;97395.56;;;10.98;100.00
2791;BME280;31795;50.970;13.366;2022-09-09T04:11:56;97399.56;;;11.00;100.00
2791;BME280;31795;50.970;13.366;2022-09-09T04:14:15;97397.13;;;10.99;100.00
2791;BME280;31795;50.970;13.366;2022-09-09T04:16:28;97399.97;;;11.04;100.00
2791;BME280;31795;50.970;13.366;2022-09-09T04:18:48;97400.38;;;11.08;100.00
2791;BME280;31795;50.970;13.366;2022-09-09T04:20:56;97404.81;;;11.07;100.00
2791;BME280;31795;50.970;13.366;2022-09-09T04:23:32;97408.03;;;11.09;100.00
2791;BME280;31795;50.970;13.366;2022-09-09T04:25:46;97398.78;;;11.13;100.00
2791;BME280;31795;50.970;13.366;2022-09-09T04:27:59;97403.03;;;11.21;100.00
2791;BME280;31795;50.970;13.366;2022-09-09T04:30:11;97395.66;;;11.25;100.00
2791;BME280;31795;50.970;13.366;2022-09-09T04:32:38;97398.06;;;11.26;100.00
2791;BME280;31795;50.970;13.366;2022-09-09T04:34:53;97398.06;;;11.26;100.00
2791;BME280;31795;50.970;13.366;2022-09-09T04:37:07;97397.84;;;11.28;100.00
2791;BME280;31795;50.970;13.366;2022-09-09T04:39:17;97398.66;;;11.28;100.00
2791;BME280;31795;50.970;13.366;2022-09-09T04:41:27;97399.47;;;11.29;100.00
2791;BME280;31795;50.970;13.366;2022-09-09T04:43:40;97405.50;;;11.29;100.00
2791;BME280;31795;50.970;13.366;2022-09-09T04:45:50;97400.47;;;11.28;100.00
2791;BME280;31795;50.970;13.366;2022-09-09T04:48:11;97395.06;;;11.29;100.00
2791;BME280;31795;50.970;13.366;2022-09-09T04:50:17;97402.69;;;11.31;100.00
2791;BME280;31795;50.970;13.366;2022-09-09T04:52:56;97402.69;;;11.31;100.00
2791;BME280;31795;50.970;13.366;2022-09-09T04:55:07;97405.53;;;11.36;100.00
2791;BME280;31795;50.970;13.366;2022-09-09T04:57:24;97400.69;;;11.40;100.00
2791;BME280;31795;50.970;13.366;2022-09-09T04:59:37;97396.69;;;11.44;100.00
2791;BME280;31795;50.970;13.366;2022-09-09T05:01:47;97409.34;;;11.47;100.00
2791;BME280;31795;50.970;13.366;2022-09-09T05:04:01;97404.13;;;11.54;100.00
2791;BME280;31795;50.970;13.366;2022-09-09T05:06:21;97406.75;;;11.60;100.00
2791;BME280;31795;50.970;13.366;2022-09-09T05:11:42;97423.31;;;11.74;100.00
2791;BME280;31795;50.970;13.366;2022-09-09T05:13:57;97425.91;;;11.81;100.00
2791;BME280;31795;50.970;13.366;2022-09-09T05:16:07;97425.31;;;11.86;100.00
2791;BME280;31795;50.970;13.366;2022-09-09T05:18:16;97421.09;;;11.91;100.00
2791;BME280;31795;50.970;13.366;2022-09-09T05:20:30;97421.13;;;11.98;100.00
2791;BME280;31795;50.970;13.366;2022-09-09T05:22:38;97415.09;;;12.04;100.00
2791;BME280;31795;50.970;13.366;2022-09-09T05:24:51;97418.31;;;12.13;100.00
2791;BME280;31795;50.970;13.366;2022-09-09T05:26:59;97421.75;;;12.20;100.00
2791;BME280;31795;50.970;13.366;2022-09-09T05:29:10;97427.97;;;12.26;100.00
2791;BME280;31795;50.970;13.366;2022-09-09T05:31:26;97427.16;;;12.32;100.00
2791;BME280;31795;50.970;13.366;2022-09-09T05:33:44;97431.38;;;12.40;100.00
2791;BME280;31795;50.970;13.366;2022-09-09T05:35:55;97436.63;;;12.47;100.00
2791;BME280;31795;50.970;13.366;2022-09-09T05:38:27;97439.22;;;12.53;100.00
2791;BME280;31795;50.970;13.366;2022-09-09T05:41:07;97437.41;;;12.61;100.00
2791;BME280;31795;50.970;13.366;2022-09-09T05:43:32;97437.81;;;12.64;100.00
2791;BME280;31795;50.970;13.366;2022-09-09T05:46:03;97444.03;;;12.70;100.00
2791;BME280;31795;50.970;13.366;2022-09-09T05:48:13;97443.41;;;12.75;100.00
2791;BME280;31795;50.970;13.366;2022-09-09T05:50:23;97445.41;;;12.79;100.00
2791;BME280;31795;50.970;13.366;2022-09-09T05:52:30;97442.41;;;12.82;100.00
2791;BME280;31795;50.970;13.366;2022-09-09T05:54:39;97430.69;;;12.85;100.00
2791;BME280;31795;50.970;13.366;2022-09-09T05:56:52;97437.97;;;12.90;100.00
2791;BME280;31795;50.970;13.366;2022-09-09T05:59:15;97447.00;;;12.94;100.00
2791;BME280;31795;50.970;13.366;2022-09-09T06:01:22;97441.97;;;12.99;100.00
2791;BME280;31795;50.970;13.366;2022-09-09T06:03:29;97447.19;;;13.06;100.00
2791;BME280;31795;50.970;13.366;2022-09-09T06:05:36;97445.53;;;13.11;100.00
2791;BME280;31795;50.970;13.366;2022-09-09T06:07:42;97441.47;;;13.22;100.00
2791;BME280;31795;50.970;13.366;2022-09-09T06:09:49;97442.44;;;13.34;100.00
2791;BME280;31795;50.970;13.366;2022-09-09T06:11:56;97444.44;;;13.46;100.00
2791;BME280;31795;50.970;13.366;2022-09-09T06:14:04;97444.13;;;13.61;100.00
2791;BME280;31795;50.970;13.366;2022-09-09T06:16:28;97441.25;;;13.76;100.00
2791;BME280;31795;50.970;13.366;2022-09-09T06:18:38;97443.78;;;13.89;100.00
2791;BME280;31795;50.970;13.366;2022-09-09T06:21:03;97442.03;;;14.08;100.00
2791;BME280;31795;50.970;13.366;2022-09-09T06:23:20;97450.16;;;14.25;100.00
2791;BME280;31795;50.970;13.366;2022-09-09T06:25:27;97449.03;;;14.40;100.00
2791;BME280;31795;50.970;13.366;2022-09-09T06:27:36;97442.84;;;14.53;100.00
2791;BME280;31795;50.970;13.366;2022-09-09T06:29:42;97443.97;;;14.64;100.00
2791;BME280;31795;50.970;13.366;2022-09-09T06:32:05;97442.84;;;14.78;100.00
2791;BME280;31795;50.970;13.366;2022-09-09T06:34:15;97442.56;;;14.86;100.00
2791;BME280;31795;50.970;13.366;2022-09-09T06:36:30;97446.06;;;14.99;100.00
2791;BME280;31795;50.970;13.366;2022-09-09T06:38:37;97447.16;;;15.10;100.00
2791;BME280;31795;50.970;13.366;2022-09-09T06:40:51;97447.34;;;15.27;100.00
2791;BME280;31795;50.970;13.366;2022-09-09T06:43:06;97446.25;;;15.35;100.00
2791;BME280;31795;50.970;13.366;2022-09-09T06:45:17;97445.81;;;15.38;100.00
2791;BME280;31795;50.970;13.366;2022-09-09T06:50:22;97442.06;;;15.45;100.00
2791;BME280;31795;50.970;13.366;2022-09-09T06:50:27;97434.44;;;15.56;100.00
2791;BME280;31795;50.970;13.366;2022-09-09T06:52:33;97439.84;;;15.61;100.00
2791;BME280;31795;50.970;13.366;2022-09-09T06:54:40;97440.66;;;15.61;100.00
2791;BME280;31795;50.970;13.366;2022-09-09T06:56:53;97449.47;;;15.67;100.00
2791;BME280;31795;50.970;13.366;2022-09-09T06:59:00;97446.88;;;15.79;100.00
2791;BME280;31795;50.970;13.366;2022-09-09T07:01:10;97443.53;;;16.02;100.00
2791;BME280;31795;50.970;13.366;2022-09-09T07:03:18;97450.69;;;16.37;100.00
2791;BME280;31795;50.970;13.366;2022-09-09T07:05:25;97450.91;;;16.72;100.00
2791;BME280;31795;50.970;13.366;2022-09-09T07:07:37;97455.34;;;16.83;100.00
2791;BME280;31795;50.970;13.366;2022-09-09T07:09:45;97454.19;;;16.91;100.00
2791;BME280;31795;50.970;13.366;2022-09-09T07:11:52;97450.31;;;17.05;100.00
2791;BME280;31795;50.970;13.366;2022-09-09T07:14:05;97445.91;;;17.23;100.00
2791;BME280;31795;50.970;13.366;2022-09-09T07:16:27;97446.91;;;17.34;100.00
2791;BME280;31795;50.970;13.366;2022-09-09T07:22:10;97443.97;;;17.47;100.00
2791;BME280;31795;50.970;13.366;2022-09-09T07:24:22;97444.13;;;17.69;100.00
2791;BME280;31795;50.970;13.366;2022-09-09T07:26:32;97448.88;;;17.84;100.00
2791;BME280;31795;50.970;13.366;2022-09-09T07:28:42;97453.91;;;17.98;100.00
2791;BME280;31795;50.970;13.366;2022-09-09T07:31:13;97458.47;;;18.02;100.00
2791;BME280;31795;50.970;13.366;2022-09-09T07:33:20;97458.47;;;18.02;100.00
2791;BME280;31795;50.970;13.366;2022-09-09T07:35:27;97461.81;;;17.98;100.00
2791;BME280;31795;50.970;13.366;2022-09-09T07:38:01;97466.50;;;17.96;100.00
2791;BME280;31795;50.970;13.366;2022-09-09T07:40:23;97464.91;;;17.95;100.00
2791;BME280;31795;50.970;13.366;2022-09-09T07:42:32;97465.38;;;17.91;100.00
2791;BME280;31795;50.970;13.366;2022-09-09T07:44:39;97463.97;;;18.01;100.00
2791;BME280;31795;50.970;13.366;2022-09-09T07:47:00;97474.00;;;18.16;100.00
2791;BME280;31795;50.970;13.366;2022-09-09T07:49:30;97465.44;;;18.26;100.00
2791;BME280;31795;50.970;13.366;2022-09-09T07:51:51;97464.72;;;18.30;100.00
2791;BME280;31795;50.970;13.366;2022-09-09T07:54:21;97473.44;;;18.31;100.00
2791;BME280;31795;50.970;13.366;2022-09-09T07:56:38;97465.59;;;18.36;100.00
2791;BME280;31795;50.970;13.366;2022-09-09T07:58:48;97468.94;;;18.48;100.00
2791;BME280;31795;50.970;13.366;2022-09-09T08:00:55;97464.94;;;18.63;100.00
2791;BME280;31795;50.970;13.366;2022-09-09T08:03:05;97473.94;;;18.84;100.00
2791;BME280;31795;50.970;13.366;2022-09-09T08:05:15;97474.81;;;19.07;100.00
2791;BME280;31795;50.970;13.366;2022-09-09T08:07:26;97476.59;;;19.23;100.00
2791;BME280;31795;50.970;13.366;2022-09-09T08:09:38;97479.91;;;19.36;100.00
2791;BME280;31795;50.970;13.366;2022-09-09T08:11:48;97488.03;;;19.51;100.00
2791;BME280;31795;50.970;13.366;2022-09-09T08:13:57;97488.03;;;19.51;100.00
2791;BME280;31795;50.970;13.366;2022-09-09T08:18:39;97485.63;;;19.50;100.00
2791;BME280;31795;50.970;13.366;2022-09-09T08:21:08;97488.56;;;19.53;100.00
2791;BME280;31795;50.970;13.366;2022-09-09T08:23:26;97481.72;;;19.57;100.00
2791;BME280;31795;50.970;13.366;2022-09-09T08:25:41;97488.88;;;19.57;100.00
2791;BME280;31795;50.970;13.366;2022-09-09T08:27:53;97481.63;;;19.47;100.00
2791;BME280;31795;50.970;13.366;2022-09-09T08:29:59;97482.13;;;19.44;100.00
2791;BME280;31795;50.970;13.366;2022-09-09T08:32:06;97490.81;;;19.39;100.00
2791;BME280;31795;50.970;13.366;2022-09-09T08:34:22;97489.38;;;19.32;100.00
2791;BME280;31795;50.970;13.366;2022-09-09T08:36:54;97489.66;;;19.30;100.00
2791;BME280;31795;50.970;13.366;2022-09-09T08:39:22;97496.34;;;19.38;100.00
2791;BME280;31795;50.970;13.366;2022-09-09T08:41:41;97488.91;;;19.35;100.00
2791;BME280;31795;50.970;13.366;2022-09-09T08:44:10;97491.84;;;19.38;100.00
2791;BME280;31795;50.970;13.366;2022-09-09T08:46:47;97489.31;;;19.49;100.00
2791;BME280;31795;50.970;13.366;2022-09-09T08:49:53;97495.44;;;19.76;100.00
2791;BME280;31795;50.970;13.366;2022-09-09T08:52:15;97495.72;;;19.80;100.00
2791;BME280;31795;50.970;13.366;2022-09-09T08:54:40;97501.03;;;19.80;100.00
2791;BME280;31795;50.970;13.366;2022-09-09T08:56:48;97504.22;;;19.82;100.00
2791;BME280;31795;50.970;13.366;2022-09-09T08:59:00;97500.25;;;19.80;100.00
2791;BME280;31795;50.970;13.366;2022-09-09T09:01:46;97498.09;;;19.76;100.00
2791;BME280;31795;50.970;13.366;2022-09-09T09:04:04;97502.94;;;19.85;100.00
2791;BME280;31795;50.970;13.366;2022-09-09T09:06:25;97496.72;;;19.96;100.00
2791;BME280;31795;50.970;13.366;2022-09-09T09:08:40;97500.22;;;20.02;100.00
2791;BME280;31795;50.970;13.366;2022-09-09T09:10:59;97500.59;;;20.16;100.00
2791;BME280;31795;50.970;13.366;2022-09-09T09:13:13;97501.69;;;20.20;100.00
2791;BME280;31795;50.970;13.366;2022-09-09T09:15:41;97505.66;;;20.17;100.00
2791;BME280;31795;50.970;13.366;2022-09-09T09:17:48;97505.88;;;20.11;100.00
2791;BME280;31795;50.970;13.366;2022-09-09T09:20:13;97512.00;;;20.16;100.00
2791;BME280;31795;50.970;13.366;2022-09-09T09:22:32;97502.13;;;20.12;100.00
2791;BME280;31795;50.970;13.366;2022-09-09T09:24:54;97506.59;;;20.33;100.00
2791;BME280;31795;50.970;13.366;2022-09-09T09:27:13;97505.66;;;20.50;100.00
2791;BME280;31795;50.970;13.366;2022-09-09T09:29:30;97502.31;;;20.65;100.00
2791;BME280;31795;50.970;13.366;2022-09-09T09:31:43;97501.06;;;20.78;100.00
2791;BME280;31795;50.970;13.366;2022-09-09T09:34:04;97498.41;;;20.78;100.00
2791;BME280;31795;50.970;13.366;2022-09-09T09:36:14;97494.53;;;20.91;100.00
2791;BME280;31795;50.970;13.366;2022-09-09T09:38:39;97488.22;;;20.64;100.00
2791;BME280;31795;50.970;13.366;2022-09-09T09:40:53;97489.75;;;20.55;100.00
2791;BME280;31795;50.970;13.366;2022-09-09T09:43:27;97497.81;;;20.71;100.00
2791;BME280;31795;50.970;13.366;2022-09-09T09:45:42;97487.56;;;20.79;100.00
2791;BME280;31795;50.970;13.366;2022-09-09T09:48:10;97496.50;;;21.11;100.00
2791;BME280;31795;50.970;13.366;2022-09-09T09:50:25;97487.13;;;21.56;100.00
2791;BME280;31795;50.970;13.366;2022-09-09T09:52:41;97474.44;;;22.10;100.00
2791;BME280;31795;50.970;13.366;2022-09-09T09:54:50;97469.13;;;22.10;91.08
2791;BME280;31795;50.970;13.366;2022-09-09T09:57:26;97480.03;;;22.19;91.56
2791;BME280;31795;50.970;13.366;2022-09-09T09:59:43;97479.78;;;22.05;91.04
2791;BME280;31795;50.970;13.366;2022-09-09T10:08:11;97480.31;;;22.54;96.77
2791;BME280;31795;50.970;13.366;2022-09-09T10:10:46;97471.84;;;22.46;99.22
2791;BME280;31795;50.970;13.366;2022-09-09T10:13:04;97479.50;;;22.17;98.89
2791;BME280;31795;50.970;13.366;2022-09-09T10:15:32;97481.63;;;21.94;99.08
2791;BME280;31795;50.970;13.366;2022-09-09T10:17:54;97482.69;;;21.88;98.68
2791;BME280;31795;50.970;13.366;2022-09-09T10:20:25;97480.31;;;22.17;100.00
2791;BME280;31795;50.970;13.366;2022-09-09T10:22:54;97479.00;;;22.41;100.00
2791;BME280;31795;50.970;13.366;2022-09-09T10:25:28;97464.09;;;22.24;97.14
2791;BME280;31795;50.970;13.366;2022-09-09T10:27:42;97472.59;;;22.11;97.56
2791;BME280;31795;50.970;13.366;2022-09-09T10:30:02;97474.19;;;22.07;99.16
2791;BME280;31795;50.970;13.366;2022-09-09T10:32:36;97464.91;;;22.04;98.96
2791;BME280;31795;50.970;13.366;2022-09-09T10:34:55;97460.38;;;22.10;97.88
2791;BME280;31795;50.970;13.366;2022-09-09T10:37:36;97459.06;;;22.07;98.25
2791;BME280;31795;50.970;13.366;2022-09-09T10:40:23;97464.63;;;22.05;97.61
2791;BME280;31795;50.970;13.366;2022-09-09T10:42:38;97462.75;;;22.11;92.60
2791;BME280;31795;50.970;13.366;2022-09-09T10:45:15;97450.53;;;22.52;94.06
2791;BME280;31795;50.970;13.366;2022-09-09T10:47:42;97457.94;;;22.86;92.75
2791;BME280;31795;50.970;13.366;2022-09-09T10:50:28;97458.00;;;23.36;91.97
2791;BME280;31795;50.970;13.366;2022-09-09T10:52:58;97445.69;;;23.50;88.53
2791;BME280;31795;50.970;13.366;2022-09-09T10:55:38;97449.63;;;23.58;88.33
2791;BME280;31795;50.970;13.366;2022-09-09T10:57:47;97450.75;;;23.52;88.60
2791;BME280;31795;50.970;13.366;2022-09-09T11:00:22;97435.28;;;23.54;82.10
2791;BME280;31795;50.970;13.366;2022-09-09T11:02:33;97441.16;;;23.51;77.10
2791;BME280;31795;50.970;13.366;2022-09-09T11:04:42;97448.13;;;23.86;86.12
2791;BME280;31795;50.970;13.366;2022-09-09T11:06:58;97449.66;;;24.32;85.82
2791;BME280;31795;50.970;13.366;2022-09-09T11:09:22;97443.22;;;24.63;84.97
2791;BME280;31795;50.970;13.366;2022-09-09T11:11:36;97433.44;;;24.83;83.56
2791;BME280;31795;50.970;13.366;2022-09-09T11:13:53;97444.22;;;24.97;81.80
2791;BME280;31795;50.970;13.366;2022-09-09T11:16:27;97435.41;;;24.42;79.92
2791;BME280;31795;50.970;13.366;2022-09-09T11:18:42;97440.44;;;24.20;81.54
2791;BME280;31795;50.970;13.366;2022-09-09T11:20:59;97437.81;;;24.44;82.12
2791;BME280;31795;50.970;13.366;2022-09-09T11:23:11;97436.41;;;24.22;80.26
2791;BME280;31795;50.970;13.366;2022-09-09T11:25:23;97445.00;;;24.14;78.28
2791;BME280;31795;50.970;13.366;2022-09-09T11:27:42;97434.34;;;24.14;75.00
2791;BME280;31795;50.970;13.366;2022-09-09T11:30:11;97435.84;;;23.46;69.48
2791;BME280;31795;50.970;13.366;2022-09-09T11:32:37;97437.38;;;22.96;74.69
2791;BME280;31795;50.970;13.366;2022-09-09T11:35:24;97436.88;;;22.89;78.95
2791;BME280;31795;50.970;13.366;2022-09-09T11:37:58;97434.56;;;22.52;82.98
2791;BME280;31795;50.970;13.366;2022-09-09T11:40:34;97436.00;;;23.15;82.47
2791;BME280;31795;50.970;13.366;2022-09-09T11:42:49;97441.94;;;23.51;83.02
2791;BME280;31795;50.970;13.366;2022-09-09T11:44:56;97426.84;;;23.41;82.21
2791;BME280;31795;50.970;13.366;2022-09-09T11:47:21;97437.75;;;23.40;82.15
2791;BME280;31795;50.970;13.366;2022-09-09T11:49:41;97436.66;;;23.46;78.06
2791;BME280;31795;50.970;13.366;2022-09-09T11:51:48;97434.94;;;23.16;74.48
2791;BME280;31795;50.970;13.366;2022-09-09T11:54:03;97431.91;;;22.62;73.15
2791;BME280;31795;50.970;13.366;2022-09-09T11:56:30;97434.84;;;22.40;76.75
2791;BME280;31795;50.970;13.366;2022-09-09T11:58:54;97436.97;;;22.58;81.72
2791;BME280;31795;50.970;13.366;2022-09-09T12:01:13;97439.44;;;23.10;82.61
2791;BME280;31795;50.970;13.366;2022-09-09T12:04:02;97434.16;;;23.05;76.75
2791;BME280;31795;50.970;13.366;2022-09-09T12:06:31;97430.38;;;23.16;77.73
2791;BME280;31795;50.970;13.366;2022-09-09T12:08:50;97430.97;;;23.03;76.41
2791;BME280;31795;50.970;13.366;2022-09-09T12:11:10;97417.00;;;22.66;73.14
2791;BME280;31795;50.970;13.366;2022-09-09T12:13:20;97420.16;;;22.78;77.61
2791;BME280;31795;50.970;13.366;2022-09-09T12:15:47;97415.63;;;22.79;75.44
2791;BME280;31795;50.970;13.366;2022-09-09T12:17:57;97421.81;;;22.59;76.61
2791;BME280;31795;50.970;13.366;2022-09-09T12:20:22;97423.94;;;22.62;78.03
2791;BME280;31795;50.970;13.366;2022-09-09T12:29:20;97413.81;;;22.38;76.83
2791;BME280;31795;50.970;13.366;2022-09-09T12:31:48;97406.41;;;22.45;78.89
2791;BME280;31795;50.970;13.366;2022-09-09T12:34:11;97402.69;;;22.41;77.71
2791;BME280;31795;50.970;13.366;2022-09-09T12:36:29;97398.97;;;22.32;78.99